Time;durP1;ratioP1;P1;durP2;ratioP2;P2;SDS_P1;SDS_P2;PMS_P1;PMS_P2;Temp;Humidity;BMP_temperature;BMP_pressure;BME280_temperature;BME280_humidity;BME280_pressure;Samples;Min_cycle;Max_cycle;Signal;HPM_P1;HPM_P2
2023/10/12 00:02:00;;;;;;;26.60;12.52;;;;;;;16.48;100.00;101037.16;5005562;28;20033;-74
2023/10/12 00:04:35;;;;;;;27.20;12.55;;;;;;;16.47;100.00;101044.44;4987346;28;20113;-74
2023/10/12 00:07:09;;;;;;;25.38;12.85;;;;;;;16.47;100.00;101044.44;5006588;28;20033;-74
2023/10/12 00:09:34;;;;;;;24.55;12.88;;;;;;;16.48;100.00;101050.72;5003082;28;20108;-73
2023/10/12 00:12:07;;;;;;;26.88;12.82;;;;;;;16.48;100.00;101051.56;5003559;28;20495;-73
2023/10/12 00:14:34;;;;;;;27.40;13.68;;;;;;;16.48;100.00;101061.56;5005350;28;20059;-73
2023/10/12 00:17:00;;;;;;;26.98;13.02;;;;;;;16.48;100.00;101065.13;5007032;28;20025;-73
2023/10/12 00:19:25;;;;;;;30.70;14.50;;;;;;;16.49;100.00;101057.84;5005740;28;20246;-73
2023/10/12 00:21:56;;;;;;;23.92;12.65;;;;;;;16.49;100.00;101055.13;5004777;28;20022;-73
2023/10/12 00:24:22;;;;;;;29.13;12.90;;;;;;;16.49;100.00;101066.00;4987624;28;20053;-74
2023/10/12 00:26:47;;;;;;;24.83;13.32;;;;;;;16.50;100.00;101064.97;5007015;28;20435;-74
2023/10/12 00:29:12;;;;;;;30.35;15.20;;;;;;;16.50;100.00;101064.97;5007028;28;20076;-74
2023/10/12 00:31:41;;;;;;;31.50;14.85;;;;;;;16.48;100.00;101069.69;5006754;28;20117;-73
2023/10/12 00:34:08;;;;;;;26.00;14.05;;;;;;;16.47;100.00;101062.56;4989176;28;20037;-74
2023/10/12 00:36:37;;;;;;;28.13;15.05;;;;;;;16.46;100.00;101067.13;5007066;28;20080;-74
2023/10/12 00:39:09;;;;;;;34.03;16.33;;;;;;;16.46;100.00;101077.97;4993081;28;20152;-74
2023/10/12 00:41:36;;;;;;;29.88;16.48;;;;;;;16.44;100.00;101085.41;5010826;28;20014;-74
2023/10/12 00:44:10;;;;;;;27.85;14.45;;;;;;;16.43;100.00;101087.25;5011214;28;20394;-73
2023/10/12 00:49:22;;;;;;;29.80;15.90;;;;;;;16.39;100.00;101102.09;5010384;28;20252;-73
2023/10/12 00:51:54;;;;;;;31.63;17.80;;;;;;;16.36;100.00;101104.28;4992418;28;20026;-73
2023/10/12 00:54:41;;;;;;;28.73;16.52;;;;;;;16.35;100.00;101099.84;5010462;28;20030;-71
2023/10/12 00:57:09;;;;;;;33.50;16.42;;;;;;;16.32;100.00;101098.25;4996507;28;20030;-72
2023/10/12 00:59:38;;;;;;;28.30;16.58;;;;;;;16.31;100.00;101095.69;4984969;28;20065;-72
2023/10/12 01:02:08;;;;;;;30.35;18.10;;;;;;;16.30;100.00;101104.84;5011082;28;20042;-75
2023/10/12 01:04:41;;;;;;;30.50;16.55;;;;;;;16.29;100.00;101092.28;5008918;28;20032;-73
2023/10/12 01:07:07;;;;;;;27.73;16.10;;;;;;;16.28;100.00;101090.56;5001653;28;20034;-72
2023/10/12 01:09:39;;;;;;;31.85;16.60;;;;;;;16.26;100.00;101098.84;5010607;28;20042;-72
2023/10/12 01:12:13;;;;;;;34.55;17.00;;;;;;;16.22;100.00;101103.72;5012777;28;20038;-72
2023/10/12 01:14:43;;;;;;;33.90;16.70;;;;;;;16.19;100.00;101097.69;5009985;28;20025;-73
2023/10/12 01:17:15;;;;;;;27.13;16.95;;;;;;;16.17;100.00;101105.13;5010412;28;20528;-73
2023/10/12 01:19:47;;;;;;;32.78;17.33;;;;;;;16.16;100.00;101114.25;5010413;28;20032;-72
2023/10/12 01:22:25;;;;;;;32.03;17.83;;;;;;;16.13;100.00;101109.13;4992479;28;20034;-72
2023/10/12 01:27:16;;;;;;;33.33;19.75;;;;;;;16.08;100.00;101102.28;5010210;28;20149;-72
2023/10/12 01:29:41;;;;;;;35.50;18.77;;;;;;;16.08;100.00;101091.44;5010397;28;20050;-72
2023/10/12 01:34:36;;;;;;;33.13;19.02;;;;;;;16.03;100.00;101088.31;5016694;28;20133;-73
2023/10/12 01:37:20;;;;;;;35.83;18.63;;;;;;;16.02;100.00;101074.88;5009960;28;20030;-72
2023/10/12 01:39:56;;;;;;;33.70;19.05;;;;;;;15.98;100.00;101066.16;5007232;28;20030;-71
2023/10/12 01:42:26;;;;;;;31.90;18.52;;;;;;;15.98;100.00;101065.31;5005163;28;20080;-72
2023/10/12 01:44:51;;;;;;;251.52;56.50;;;;;;;15.97;100.00;101058.19;4996342;28;20494;-71
2023/10/12 01:47:16;;;;;;;34.63;18.83;;;;;;;15.95;100.00;101063.75;5008678;28;20056;-71
2023/10/12 01:49:45;;;;;;;33.22;19.77;;;;;;;15.94;100.00;101062.03;5005968;28;20034;-71
2023/10/12 01:52:11;;;;;;;31.33;17.95;;;;;;;15.92;100.00;101074.88;4990670;28;20052;-71
2023/10/12 01:54:42;;;;;;;30.23;17.35;;;;;;;15.91;100.00;101073.16;4990275;28;20320;-71
2023/10/12 01:57:07;;;;;;;36.10;19.08;;;;;;;15.88;100.00;101081.56;5007788;28;20037;-72
2023/10/12 01:59:33;;;;;;;30.55;17.67;;;;;;;15.88;100.00;101070.72;5009707;28;20100;-70
2023/10/12 02:02:13;;;;;;;35.15;19.70;;;;;;;15.85;100.00;101069.16;5012242;28;20068;-71
2023/10/12 02:04:40;;;;;;;34.13;19.10;;;;;;;15.83;100.00;101065.75;5009208;28;20116;-72
2023/10/12 02:07:06;;;;;;;32.13;17.88;;;;;;;15.81;100.00;101064.16;5008527;28;20061;-72
2023/10/12 02:09:34;;;;;;;34.60;19.88;;;;;;;15.78;100.00;101059.88;5007882;28;20025;-72
2023/10/12 02:12:09;;;;;;;34.00;20.10;;;;;;;15.76;100.00;101069.97;5005280;28;20030;-71
2023/10/12 02:14:39;;;;;;;34.05;20.05;;;;;;;15.73;100.00;101081.94;5009122;28;20029;-72
2023/10/12 02:17:05;;;;;;;;;;;;;;;15.77;100.00;101082.53;5008617;28;20129;-72
2023/10/12 02:19:42;;;;;;;32.17;20.02;;;;;;;15.69;100.00;101085.09;5009106;28;19917;-72
2023/10/12 02:22:24;;;;;;;38.33;20.20;;;;;;;15.65;100.00;101089.94;4989153;28;20130;-72
2023/10/12 02:25:03;;;;;;;30.73;19.88;;;;;;;15.62;100.00;101084.78;4992191;28;20033;-72
2023/10/12 02:27:32;;;;;;;33.90;20.05;;;;;;;15.56;100.00;101063.66;5009060;28;20061;-73
2023/10/12 02:29:57;;;;;;;34.95;20.95;;;;;;;15.54;100.00;101065.66;5008352;28;20680;-73
2023/10/12 02:32:25;;;;;;;34.88;19.90;;;;;;;15.50;100.00;101053.41;5007998;28;20033;-73
2023/10/12 02:34:57;;;;;;;31.45;18.75;;;;;;;15.47;100.00;101032.84;5005855;28;20036;-73
2023/10/12 02:37:24;;;;;;;31.50;20.63;;;;;;;15.45;100.00;101040.28;5010656;28;20061;-73
2023/10/12 02:39:53;;;;;;;33.90;21.13;;;;;;;15.43;100.00;101036.00;5006122;28;20471;-73
2023/10/12 02:42:21;;;;;;;33.75;20.08;;;;;;;15.42;100.00;101034.25;4990022;28;20517;-73
2023/10/12 02:47:24;;;;;;;32.65;19.05;;;;;;;15.40;100.00;101042.53;5006021;28;20410;-73
2023/10/12 02:49:59;;;;;;;34.65;19.23;;;;;;;15.39;100.00;101046.25;4989130;28;20029;-74
2023/10/12 02:52:25;;;;;;;33.47;20.98;;;;;;;15.38;100.00;101042.66;5005398;28;20467;-73
2023/10/12 02:54:50;;;;;;;35.65;21.58;;;;;;;15.36;100.00;101036.56;5010878;28;20105;-74
2023/10/12 02:57:23;;;;;;;36.22;18.88;;;;;;;15.38;100.00;101039.13;5007104;28;20030;-73
2023/10/12 02:59:56;;;;;;;31.15;18.85;;;;;;;15.38;100.00;101031.00;4989665;28;20030;-73
2023/10/12 03:02:35;;;;;;;31.92;18.00;;;;;;;15.37;100.00;101029.28;5006218;28;20120;-73
2023/10/12 03:05:06;;;;;;;32.15;18.45;;;;;;;15.38;100.00;101028.28;4992906;28;20120;-73
2023/10/12 03:07:37;;;;;;;30.52;18.83;;;;;;;15.36;100.00;101028.44;5009039;28;20151;-73
2023/10/12 03:10:06;;;;;;;30.83;17.45;;;;;;;15.35;100.00;101033.97;5005586;28;20347;-73
2023/10/12 03:12:35;;;;;;;31.98;18.27;;;;;;;15.33;100.00;101028.72;5006917;28;20018;-73
2023/10/12 03:15:12;;;;;;;32.63;18.67;;;;;;;15.33;100.00;101036.84;5007601;28;20040;-73
2023/10/12 03:17:41;;;;;;;30.80;17.52;;;;;;;15.30;100.00;101033.53;5008439;28;20026;-74
2023/10/12 03:20:21;;;;;;;31.58;17.52;;;;;;;15.31;100.00;101036.09;5006337;28;20040;-74
2023/10/12 03:22:48;;;;;;;31.00;17.35;;;;;;;15.30;100.00;101030.81;4986188;28;20029;-74
2023/10/12 03:25:46;;;;;;;30.77;19.25;;;;;;;15.27;100.00;101031.97;5006077;28;20430;-74
2023/10/12 03:28:29;;;;;;;32.92;17.90;;;;;;;15.25;100.00;101039.38;5001379;28;20026;-74
2023/10/12 03:34:13;;;;;;;28.98;15.63;;;;;;;15.22;100.00;101034.22;4963844;28;20471;-74
2023/10/12 03:36:40;;;;;;;28.65;16.40;;;;;;;15.18;100.00;101033.66;4962372;28;20117;-74
2023/10/12 03:39:24;;;;;;;30.25;17.05;;;;;;;15.15;100.00;101011.41;4973249;28;20043;-73
2023/10/12 03:44:49;;;;;;;28.42;16.08;;;;;;;15.14;100.00;101044.88;4961477;28;20114;-74
2023/10/12 03:47:16;;;;;;;29.13;16.30;;;;;;;15.14;100.00;101053.88;4950708;28;20476;-75
2023/10/12 03:52:18;;;;;;;29.73;15.18;;;;;;;15.11;100.00;101043.34;4985325;28;20045;-74
2023/10/12 03:54:55;;;;;;;28.52;15.57;;;;;;;15.12;100.00;101044.19;4966840;28;20122;-73
2023/10/12 04:02:41;;;;;;;30.38;15.85;;;;;;;15.09;100.00;101052.56;4984686;28;20030;-74
2023/10/12 04:21:23;;;;;;;26.95;15.48;;;;;;;15.06;100.00;101063.69;5011536;28;20084;-74
2023/10/12 04:26:37;;;;;;;28.75;16.98;;;;;;;15.06;100.00;101063.69;5013765;28;20041;-73
2023/10/12 04:29:21;;;;;;;27.48;15.63;;;;;;;15.04;100.00;101071.94;5026417;28;20036;-74
2023/10/12 04:31:49;;;;;;;29.30;14.40;;;;;;;15.06;100.00;101071.81;5010422;28;20017;-74
2023/10/12 04:34:18;;;;;;;29.92;15.70;;;;;;;15.04;100.00;101066.53;5010069;28;20058;-75
2023/10/12 04:41:38;;;;;;;33.30;16.98;;;;;;;15.05;100.00;101064.66;5010733;28;20120;-75
2023/10/12 04:44:35;;;;;;;30.02;16.88;;;;;;;15.07;100.00;101060.84;5010211;28;20121;-74
2023/10/12 04:47:06;;;;;;;26.50;14.55;;;;;;;15.07;100.00;101070.81;5008752;28;20364;-73
2023/10/12 04:57:32;;;;;;;30.13;15.32;;;;;;;15.07;100.00;101068.97;4977043;28;20553;-75
2023/10/12 05:07:58;;;;;;;27.33;14.93;;;;;;;15.07;100.00;101097.88;5008475;28;20072;-74
2023/10/12 05:10:31;;;;;;;28.65;14.48;;;;;;;15.08;100.00;101102.28;5010028;28;20064;-75
2023/10/12 05:13:03;;;;;;;26.38;14.05;;;;;;;15.06;100.00;101101.56;5009924;28;20057;-73
2023/10/12 05:15:39;;;;;;;30.00;16.42;;;;;;;15.08;100.00;101115.81;5010159;28;20025;-75
2023/10/12 05:18:08;;;;;;;27.90;14.73;;;;;;;15.07;100.00;101109.56;4993883;28;20029;-74
2023/10/12 05:20:34;;;;;;;29.08;15.10;;;;;;;15.10;100.00;101116.56;5008506;28;20599;-74
2023/10/12 05:23:02;;;;;;;28.30;15.38;;;;;;;15.09;100.00;101120.25;5008924;28;20042;-74
2023/10/12 05:25:38;;;;;;;28.02;14.15;;;;;;;15.09;100.00;101110.28;5009470;28;20204;-74
2023/10/12 05:28:14;;;;;;;27.63;14.38;;;;;;;15.09;100.00;101114.84;5007061;28;20091;-74
2023/10/12 05:30:46;;;;;;;28.45;15.82;;;;;;;15.08;100.00;101108.56;5009301;28;20025;-74
2023/10/12 05:33:28;;;;;;;30.38;14.65;;;;;;;15.07;100.00;101111.41;5009280;28;20487;-74
2023/10/12 05:35:57;;;;;;;26.63;14.85;;;;;;;15.08;100.00;101108.56;4992546;28;20104;-72
2023/10/12 05:38:34;;;;;;;25.75;13.75;;;;;;;15.10;100.00;101114.69;5016184;28;20030;-72
2023/10/12 05:41:08;;;;;;;24.65;11.82;;;;;;;15.09;100.00;101112.13;5007483;28;20032;-71
2023/10/12 05:43:35;;;;;;;28.42;13.93;;;;;;;15.09;100.00;101104.84;4993966;28;20022;-72
2023/10/12 05:46:04;;;;;;;27.90;13.48;;;;;;;15.08;100.00;101105.88;5010430;28;20060;-73
2023/10/12 05:48:33;;;;;;;24.15;13.73;;;;;;;15.10;100.00;101111.16;5009578;28;20286;-73
2023/10/12 05:50:58;;;;;;;30.70;12.60;;;;;;;15.12;100.00;101119.97;5009773;28;20438;-74
2023/10/12 05:53:24;;;;;;;25.00;12.13;;;;;;;15.11;100.00;101134.50;5012879;28;20033;-74
2023/10/12 05:55:49;;;;;;;29.52;12.27;;;;;;;15.11;100.00;101134.50;5009668;28;20424;-74
2023/10/12 05:58:15;;;;;;;29.50;13.60;;;;;;;15.09;100.00;101140.03;4990116;28;20136;-74
2023/10/12 06:00:52;;;;;;;26.13;13.10;;;;;;;15.08;100.00;101137.47;5004977;28;20160;-74
2023/10/12 06:03:20;;;;;;;28.30;13.32;;;;;;;15.08;100.00;101141.06;5004999;28;20034;-74
2023/10/12 06:05:47;;;;;;;25.95;11.65;;;;;;;15.09;100.00;101152.72;5007894;28;20045;-73
2023/10/12 06:08:12;;;;;;;28.40;13.68;;;;;;;15.09;100.00;101136.50;5007274;28;20036;-73
2023/10/12 06:10:41;;;;;;;25.50;13.43;;;;;;;15.09;100.00;101150.03;5008540;28;20030;-74
2023/10/12 06:13:09;;;;;;;28.48;12.98;;;;;;;15.07;100.00;101147.47;5008151;28;20028;-73
2023/10/12 06:15:40;;;;;;;27.98;12.98;;;;;;;15.09;100.00;101152.72;5006656;28;20041;-73
2023/10/12 06:18:07;;;;;;;31.75;13.75;;;;;;;15.08;100.00;101153.72;5005022;28;20437;-73
2023/10/12 06:20:40;;;;;;;27.23;13.10;;;;;;;15.08;100.00;101153.72;5008327;28;20032;-74
2023/10/12 06:23:09;;;;;;;27.08;13.27;;;;;;;15.07;100.00;101160.16;5002985;28;20041;-73
2023/10/12 06:25:38;;;;;;;28.50;13.68;;;;;;;15.05;100.00;101157.53;4989710;28;20022;-73
2023/10/12 06:28:14;;;;;;;26.40;12.27;;;;;;;15.05;100.00;101157.53;5007521;28;20037;-73
2023/10/12 06:30:50;;;;;;;26.63;13.90;;;;;;;15.05;100.00;101162.09;4991066;28;20033;-74
2023/10/12 06:33:17;;;;;;;31.05;13.27;;;;;;;15.05;100.00;101159.41;4991664;28;20170;-74
2023/10/12 06:35:58;;;;;;;26.75;12.75;;;;;;;15.03;100.00;101159.53;5008538;28;20056;-73
2023/10/12 06:44:13;;;;;;;24.27;12.32;;;;;;;15.03;100.00;101160.38;4943475;28;20121;-73
2023/10/12 06:46:48;;;;;;;25.73;12.85;;;;;;;15.00;100.00;101162.50;4944853;28;20035;-74
2023/10/12 06:49:18;;;;;;;28.73;12.60;;;;;;;15.00;100.00;101155.25;4944131;28;20071;-74
2023/10/12 06:52:01;;;;;;;25.35;13.18;;;;;;;15.00;100.00;101165.22;4943981;28;20577;-74
2023/10/12 07:02:24;;;;;;;25.60;12.80;;;;;;;14.97;100.00;101179.03;4946059;28;20130;-73
2023/10/12 07:04:57;;;;;;;24.77;11.73;;;;;;;14.97;100.00;101181.72;4944649;28;20035;-73
2023/10/12 07:07:30;;;;;;;25.23;12.88;;;;;;;14.97;100.00;101184.44;4921713;29;20062;-73
2023/10/12 07:12:37;;;;;;;;;;;;;;;15.01;100.00;101184.03;4939525;28;20126;-73
2023/10/12 07:15:10;;;;;;;26.77;13.32;;;;;;;14.96;100.00;101183.56;4925180;28;19918;-74
2023/10/12 07:17:35;;;;;;;26.42;14.00;;;;;;;14.96;100.00;101191.69;4944263;28;20485;-74
2023/10/12 07:20:01;;;;;;;29.00;12.88;;;;;;;14.96;100.00;101186.28;4942285;28;20122;-73
2023/10/12 07:22:35;;;;;;;26.65;13.00;;;;;;;14.95;100.00;101194.53;5008314;28;20513;-73
2023/10/12 07:25:00;;;;;;;28.40;14.80;;;;;;;14.96;100.00;101196.25;5007224;28;20148;-74
2023/10/12 07:27:26;;;;;;;28.65;13.68;;;;;;;14.95;100.00;101203.53;5007796;28;20124;-73
2023/10/12 07:30:15;;;;;;;29.30;12.88;;;;;;;14.96;100.00;101209.78;5007649;28;20080;-73
2023/10/12 07:32:44;;;;;;;29.08;13.82;;;;;;;14.97;100.00;101206.94;4989720;28;20037;-74
2023/10/12 07:35:18;;;;;;;;;;;;;;;15.01;100.00;101208.41;5007880;28;20153;-74
2023/10/12 07:37:44;;;;;;;28.42;13.05;;;;;;;14.97;100.00;101206.94;4987282;28;20536;-73
2023/10/12 07:40:17;;;;;;;26.55;13.23;;;;;;;14.99;100.00;101206.81;5005748;28;20065;-74
2023/10/12 07:42:46;;;;;;;29.52;13.30;;;;;;;15.01;100.00;101211.09;5008456;28;20105;-74
2023/10/12 07:45:15;;;;;;;28.25;14.32;;;;;;;15.03;100.00;101209.09;5017048;28;20087;-73
2023/10/12 07:47:41;;;;;;;27.90;12.95;;;;;;;15.02;100.00;101212.81;4994153;28;20052;-74
2023/10/12 07:50:13;;;;;;;24.35;12.20;;;;;;;15.03;100.00;101209.09;5008151;28;20247;-73
2023/10/12 07:52:48;;;;;;;25.17;12.30;;;;;;;15.05;100.00;101213.53;5009236;28;20218;-73
2023/10/12 07:55:17;;;;;;;26.33;13.18;;;;;;;15.06;100.00;101209.84;5002480;28;20387;-73
2023/10/12 07:57:44;;;;;;;23.88;13.13;;;;;;;15.08;100.00;101214.16;5007911;28;20104;-72
2023/10/12 08:05:17;;;;;;;25.58;13.15;;;;;;;15.10;100.00;101212.16;5005501;28;20036;-71
2023/10/12 08:13:05;;;;;;;25.58;13.30;;;;;;;15.17;100.00;101204.38;5006594;28;20030;-72
2023/10/12 08:15:49;;;;;;;24.83;12.20;;;;;;;15.18;100.00;101201.53;5005639;28;20358;-71
2023/10/12 08:19:08;;;;;;;32.33;14.15;;;;;;;15.22;100.00;101202.09;5005460;28;20184;-72
2023/10/12 08:21:10;;;;;;;27.33;14.18;;;;;;;15.22;100.00;101212.94;5004373;28;20502;-72
2023/10/12 08:23:37;;;;;;;26.98;13.50;;;;;;;15.27;100.00;101210.69;5004787;28;20574;-72
2023/10/12 08:26:03;;;;;;;28.42;14.07;;;;;;;15.31;100.00;101211.28;5008036;28;20021;-71
2023/10/12 08:28:36;;;;;;;25.80;13.18;;;;;;;15.32;100.00;101213.84;5021836;28;20109;-71
2023/10/12 08:31:05;;;;;;;28.10;13.73;;;;;;;15.35;100.00;101207.31;5008193;28;20469;-71
2023/10/12 08:33:49;;;;;;;27.88;15.10;;;;;;;15.42;100.00;101208.47;5005832;28;20036;-71
2023/10/12 08:38:40;;;;;;;27.65;15.13;;;;;;;15.51;100.00;101223.06;5007667;28;20036;-72
2023/10/12 08:41:20;;;;;;;32.05;14.75;;;;;;;15.56;100.00;101209.97;5007213;28;20036;-72
2023/10/12 08:43:52;;;;;;;26.48;13.63;;;;;;;15.60;100.00;101218.69;5006327;28;20085;-71
2023/10/12 08:49:33;;;;;;;28.73;14.73;;;;;;;15.65;100.00;101224.53;5007108;28;20089;-71
2023/10/12 08:52:04;;;;;;;32.17;13.25;;;;;;;15.68;100.00;101232.38;5006836;28;20063;-72
2023/10/12 08:54:35;;;;;;;30.55;14.00;;;;;;;15.72;100.00;101241.97;5002562;28;20117;-71
2023/10/12 08:57:02;;;;;;;30.17;14.30;;;;;;;15.71;100.00;101243.81;5007541;28;20041;-71
2023/10/12 08:59:33;;;;;;;25.17;13.80;;;;;;;15.75;100.00;101254.41;5009876;28;20057;-71
2023/10/12 09:02:12;;;;;;;26.52;14.77;;;;;;;15.76;100.00;101242.56;4998874;28;20022;-72
2023/10/12 09:04:39;;;;;;;26.95;13.43;;;;;;;15.76;100.00;101242.56;5010145;28;20476;-71
2023/10/12 09:07:05;;;;;;;29.63;14.82;;;;;;;15.76;100.00;101242.56;5009432;28;20106;-73
2023/10/12 09:09:48;;;;;;;27.95;13.90;;;;;;;15.76;100.00;101242.56;4993397;28;20104;-73
2023/10/12 09:12:19;;;;;;;29.35;14.48;;;;;;;15.77;100.00;101246.97;5007794;28;20089;-73
2023/10/12 09:14:44;;;;;;;26.75;13.73;;;;;;;15.77;100.00;101237.00;4991617;28;20021;-74
2023/10/12 09:17:20;;;;;;;27.85;13.77;;;;;;;15.78;100.00;101243.28;4987353;28;20490;-72
2023/10/12 09:19:47;;;;;;;25.98;13.82;;;;;;;15.80;100.00;101249.44;4991604;28;20164;-71
2023/10/12 09:22:12;;;;;;;27.33;13.57;;;;;;;15.81;100.00;101254.75;5009890;28;20034;-71
2023/10/12 09:24:38;;;;;;;27.08;12.95;;;;;;;15.80;100.00;101255.75;4991997;28;20513;-72
2023/10/12 09:27:14;;;;;;;33.25;16.75;;;;;;;15.82;100.00;101252.88;4987757;28;20033;-72
2023/10/12 09:29:57;;;;;;;27.20;13.02;;;;;;;15.81;100.00;101243.03;4999804;28;20022;-72
2023/10/12 09:32:24;;;;;;;26.67;13.25;;;;;;;15.81;100.00;101243.91;4993074;28;20088;-71
2023/10/12 09:35:10;;;;;;;28.58;14.68;;;;;;;15.82;100.00;101239.34;5009425;28;20072;-71
2023/10/12 09:37:47;;;;;;;26.67;13.93;;;;;;;15.81;100.00;101238.50;5009596;28;20037;-71
2023/10/12 09:40:35;;;;;;;27.30;13.98;;;;;;;15.82;100.00;101234.75;5006183;28;20021;-71
2023/10/12 09:43:06;;;;;;;28.60;13.68;;;;;;;15.84;100.00;101234.63;4990620;28;20021;-71
2023/10/12 09:45:44;;;;;;;26.75;14.70;;;;;;;15.83;100.00;101235.63;4988890;28;20032;-72
2023/10/12 09:48:18;;;;;;;26.85;13.30;;;;;;;15.82;100.00;101231.22;5007974;28;20135;-71
2023/10/12 09:50:47;;;;;;;27.30;13.05;;;;;;;15.86;100.00;101230.78;5004288;28;20037;-71
2023/10/12 09:53:26;;;;;;;27.88;14.73;;;;;;;15.86;100.00;101228.06;5006114;28;20025;-71
2023/10/12 09:56:15;;;;;;;25.00;13.23;;;;;;;15.84;100.00;101226.50;4985996;28;20042;-71
2023/10/12 09:58:51;;;;;;;;;;;;;;;15.89;100.00;101227.81;4988998;28;20030;-71
2023/10/12 10:01:22;;;;;;;28.13;13.98;;;;;;;15.88;100.00;101222.53;4991483;28;19944;-71
2023/10/12 10:03:49;;;;;;;29.25;14.13;;;;;;;15.88;100.00;101230.66;5008910;28;20037;-71
2023/10/12 10:06:20;;;;;;;28.52;13.70;;;;;;;15.89;100.00;101232.38;5003410;28;20029;-71
2023/10/12 10:09:09;;;;;;;26.75;13.50;;;;;;;15.89;100.00;101224.25;4983262;28;20068;-72
2023/10/12 10:11:34;;;;;;;27.87;13.60;;;;;;;15.90;100.00;101228.66;4998295;28;20494;-71
2023/10/12 10:13:59;;;;;;;28.17;14.77;;;;;;;15.90;100.00;101224.09;5001730;28;20037;-73
2023/10/12 10:16:26;;;;;;;24.38;12.88;;;;;;;15.92;100.00;101226.66;4999653;28;20395;-72
2023/10/12 10:19:16;;;;;;;27.33;14.57;;;;;;;15.94;100.00;101215.69;5005468;28;20030;-71
2023/10/12 10:21:57;;;;;;;29.30;13.93;;;;;;;15.95;100.00;101210.13;5012075;28;20108;-71
2023/10/12 10:24:25;;;;;;;27.35;14.30;;;;;;;15.99;100.00;101208.84;5007739;28;20033;-71
2023/10/12 10:27:10;;;;;;;26.70;14.20;;;;;;;16.01;100.00;101200.59;5006808;28;20494;-73
2023/10/12 10:29:53;;;;;;;29.75;14.40;;;;;;;16.01;100.00;101201.44;5005539;28;20029;-73
2023/10/12 10:32:29;;;;;;;26.73;14.82;;;;;;;16.06;100.00;101201.00;4987455;28;20029;-74
2023/10/12 10:34:58;;;;;;;27.83;13.60;;;;;;;16.05;100.00;101194.75;4999967;28;20080;-74
2023/10/12 10:37:59;;;;;;;26.67;13.10;;;;;;;16.10;100.00;101193.47;4987070;28;20026;-73
2023/10/12 10:40:47;;;;;;;28.70;14.15;;;;;;;16.12;100.00;101194.16;4989083;28;20058;-73
2023/10/12 10:43:16;;;;;;;27.10;12.63;;;;;;;16.17;100.00;101181.06;4992668;28;20030;-73
2023/10/12 10:45:56;;;;;;;28.80;13.68;;;;;;;16.20;100.00;101200.59;5001890;28;20025;-73
2023/10/12 10:48:23;;;;;;;25.30;13.80;;;;;;;16.23;100.00;101196.75;4997571;28;20145;-73
2023/10/12 10:50:51;;;;;;;29.23;14.30;;;;;;;16.26;100.00;101188.34;4999674;28;20034;-73
2023/10/12 10:53:20;;;;;;;24.70;12.88;;;;;;;16.31;100.00;101187.91;5004779;28;20518;-73
2023/10/12 10:55:50;;;;;;;24.47;11.97;;;;;;;16.33;100.00;101180.50;5004243;28;20037;-73
2023/10/12 10:58:17;;;;;;;29.15;12.98;;;;;;;16.35;100.00;101187.47;5004519;28;20029;-74
2023/10/12 11:00:45;;;;;;;28.33;14.07;;;;;;;16.38;100.00;101183.63;4988841;28;20495;-74
2023/10/12 11:03:17;;;;;;;28.33;14.07;;;;;;;16.40;100.00;101193.34;5006156;28;20030;-73
2023/10/12 11:05:46;;;;;;;23.98;13.68;;;;;;;16.41;100.00;101189.66;5003540;28;20851;-73
2023/10/12 11:08:21;;;;;;;33.03;12.75;;;;;;;16.43;100.00;101184.94;4986291;28;20394;-74
2023/10/12 11:13:32;;;;;;;29.52;12.73;;;;;;;16.48;100.00;101172.78;4996969;28;20044;-74
2023/10/12 11:16:03;;;;;;;27.83;13.82;;;;;;;16.54;100.00;101166.78;4980007;28;20105;-74
2023/10/12 11:18:30;;;;;;;30.17;13.98;;;;;;;16.52;100.00;101163.38;4999157;28;20029;-73
2023/10/12 11:21:00;;;;;;;25.85;14.02;;;;;;;16.51;100.00;101172.50;4981973;28;20487;-73
2023/10/12 11:23:26;;;;;;;27.35;13.80;;;;;;;16.51;100.00;101175.22;5000029;28;20140;-74
2023/10/12 11:26:04;;;;;;;25.08;12.80;;;;;;;16.52;100.00;101182.38;4982002;28;20033;-74
2023/10/12 11:28:29;;;;;;;26.08;13.25;;;;;;;16.52;100.00;101179.66;4997531;28;20029;-74
2023/10/12 11:31:07;;;;;;;28.08;12.85;;;;;;;16.51;100.00;101183.34;4998803;28;20030;-74
2023/10/12 11:33:34;;;;;;;24.35;12.75;;;;;;;16.50;100.00;101176.22;5004564;28;20442;-74
2023/10/12 11:36:03;;;;;;;29.02;13.35;;;;;;;16.48;100.00;101181.78;4998132;28;20032;-74
2023/10/12 11:38:29;;;;;;;30.73;11.45;;;;;;;16.48;100.00;101167.38;4999272;28;20053;-74
2023/10/12 11:40:58;;;;;;;25.55;11.75;;;;;;;16.48;100.00;101167.38;5000429;28;20036;-74
2023/10/12 11:43:44;;;;;;;26.40;12.07;;;;;;;16.47;100.00;101171.94;4998467;28;20459;-74
2023/10/12 11:46:09;;;;;;;25.75;11.48;;;;;;;16.48;100.00;101159.22;5000266;28;20452;-73
2023/10/12 11:48:36;;;;;;;25.73;10.48;;;;;;;16.46;100.00;101170.22;4999094;28;20129;-72
2023/10/12 11:51:12;;;;;;;24.05;10.73;;;;;;;16.48;100.00;101162.78;5001697;28;20121;-73
2023/10/12 11:53:41;;;;;;;20.60;9.90;;;;;;;16.46;100.00;101159.38;5000847;28;20030;-73
2023/10/12 11:56:13;;;;;;;25.63;10.52;;;;;;;16.47;100.00;101161.09;5000571;28;20676;-72
2023/10/12 11:58:40;;;;;;;24.17;9.88;;;;;;;16.49;100.00;101152.81;4982808;28;20033;-72
2023/10/12 12:01:09;;;;;;;26.45;10.63;;;;;;;16.51;100.00;101148.94;4999666;28;20079;-72
2023/10/12 12:03:39;;;;;;;21.75;9.75;;;;;;;16.53;100.00;101149.66;5000964;28;20125;-73
2023/10/12 12:06:38;;;;;;;23.33;10.50;;;;;;;16.55;100.00;101150.38;4986001;28;20387;-73
2023/10/12 12:08:59;;;;;;;25.73;10.25;;;;;;;16.55;100.00;101144.94;4997693;28;20033;-73
2023/10/12 12:11:31;;;;;;;23.63;9.93;;;;;;;16.56;100.00;101149.38;5000468;28;20103;-72
2023/10/12 12:13:57;;;;;;;24.60;10.15;;;;;;;16.56;100.00;101148.50;4985223;28;20026;-73
2023/10/12 12:16:22;;;;;;;23.63;10.23;;;;;;;16.55;100.00;101153.06;4982835;28;20396;-73
2023/10/12 12:18:51;;;;;;;23.60;9.95;;;;;;;16.57;100.00;101147.50;4999526;28;20030;-72
2023/10/12 12:21:18;;;;;;;24.70;9.82;;;;;;;16.54;100.00;101135.06;4989008;28;20022;-72
2023/10/12 12:23:49;;;;;;;25.92;9.48;;;;;;;16.54;100.00;101129.66;5007078;28;20105;-72
2023/10/12 12:26:18;;;;;;;24.10;10.07;;;;;;;16.50;100.00;101125.53;5008257;28;20029;-72
2023/10/12 12:28:44;;;;;;;22.63;9.65;;;;;;;16.51;100.00;101118.25;5004431;28;20030;-72
2023/10/12 12:31:13;;;;;;;25.85;11.25;;;;;;;16.51;100.00;101118.25;5001827;28;20037;-72
2023/10/12 12:33:43;;;;;;;26.90;10.57;;;;;;;16.51;100.00;101115.53;5009215;28;20065;-73
2023/10/12 12:36:13;;;;;;;25.73;10.45;;;;;;;16.50;100.00;101101.13;4985397;28;20057;-75
2023/10/12 12:41:12;;;;;;;22.77;10.73;;;;;;;16.48;100.00;101088.69;5004652;28;20079;-73
2023/10/12 12:43:38;;;;;;;26.30;10.88;;;;;;;16.46;100.00;101088.84;5001940;28;20034;-72
2023/10/12 12:46:05;;;;;;;22.10;10.38;;;;;;;16.43;100.00;101095.41;5003639;28;20061;-73
2023/10/12 12:48:31;;;;;;;26.02;10.60;;;;;;;16.40;100.00;101095.69;5002226;28;20030;-72
2023/10/12 12:50:56;;;;;;;26.80;10.75;;;;;;;16.41;100.00;101094.69;5003019;28;20099;-72
2023/10/12 12:53:21;;;;;;;24.77;11.02;;;;;;;16.43;100.00;101094.56;4984635;28;20045;-72
2023/10/12 12:55:47;;;;;;;26.05;11.40;;;;;;;16.41;100.00;101094.69;5002335;28;20042;-72
2023/10/12 12:58:16;;;;;;;22.88;10.23;;;;;;;16.40;100.00;101101.13;5002899;28;20093;-74
2023/10/12 13:00:48;;;;;;;22.85;9.82;;;;;;;16.41;100.00;101102.84;5000370;28;20087;-74
2023/10/12 13:03:17;;;;;;;26.95;10.55;;;;;;;16.39;100.00;101104.81;5000485;28;20103;-74